Time;durP1;ratioP1;P1;durP2;ratioP2;P2;SDS_P1;SDS_P2;PMS_P1;PMS_P2;Temp;Humidity;BMP_temperature;BMP_pressure;BME280_temperature;BME280_humidity;BME280_pressure;Samples;Min_cycle;Max_cycle;Signal;HPM_P1;HPM_P2
2022/03/13 00:02:03;;;;;;;12.02;8.63;;;;;;;;;;5035800;28;20437;-83
2022/03/13 00:04:30;;;;;;;10.93;9.10;;;;;;;;;;5038960;28;20504;-83
2022/03/13 00:06:56;;;;;;;11.15;8.80;;;;;;;;;;5037340;28;20469;-85
2022/03/13 00:09:23;;;;;;;10.73;9.45;;;;;;;;;;5038928;28;20827;-83
2022/03/13 00:11:52;;;;;;;12.27;9.60;;;;;;;;;;5039000;28;20774;-84
2022/03/13 00:14:20;;;;;;;14.15;9.30;;;;;;;;;;5037602;28;20423;-83
2022/03/13 00:16:49;;;;;;;12.45;9.10;;;;;;;;;;5038653;28;20429;-85
2022/03/13 00:19:16;;;;;;;12.50;9.02;;;;;;;;;;5036041;28;20426;-85
2022/03/13 00:21:45;;;;;;;13.98;9.20;;;;;;;;;;5037863;28;20423;-82
2022/03/13 00:24:12;;;;;;;11.68;9.38;;;;;;;;;;5038594;28;20461;-85
2022/03/13 00:26:38;;;;;;;12.68;8.90;;;;;;;;;;5036566;28;20915;-82
2022/03/13 00:29:04;;;;;;;13.43;9.65;;;;;;;;;;5032198;28;20485;-83
2022/03/13 00:31:32;;;;;;;12.02;8.90;;;;;;;;;;5037623;28;20427;-83
2022/03/13 00:33:58;;;;;;;14.32;9.95;;;;;;;;;;5038280;28;20442;-84
2022/03/13 00:36:25;;;;;;;12.15;9.00;;;;;;;;;;5039042;28;20426;-83
2022/03/13 00:38:51;;;;;;;13.18;9.15;;;;;;;;;;5033680;28;20423;-83
2022/03/13 00:41:17;;;;;;;12.10;8.80;;;;;;;;;;5038482;28;20489;-84
2022/03/13 00:43:44;;;;;;;10.70;8.75;;;;;;;;;;5037669;28;20467;-83
2022/03/13 00:46:10;;;;;;;12.13;8.87;;;;;;;;;;5039879;28;20886;-83
2022/03/13 00:48:38;;;;;;;11.70;9.00;;;;;;;;;;5038070;28;20425;-83
2022/03/13 00:51:04;;;;;;;12.10;9.35;;;;;;;;;;5038308;28;20419;-81
2022/03/13 00:53:30;;;;;;;12.57;9.50;;;;;;;;;;5037399;28;20437;-83
2022/03/13 00:55:56;;;;;;;12.90;9.60;;;;;;;;;;5037668;28;20423;-83
2022/03/13 00:58:23;;;;;;;11.32;9.35;;;;;;;;;;5034497;28;20857;-84
2022/03/13 01:00:49;;;;;;;12.57;9.57;;;;;;;;;;5038567;28;20421;-83
2022/03/13 01:03:29;;;;;;;11.63;8.97;;;;;;;;;;5037973;28;20423;-83
2022/03/13 01:05:56;;;;;;;12.57;9.10;;;;;;;;;;5037892;28;20853;-83
2022/03/13 01:08:22;;;;;;;14.90;10.13;;;;;;;;;;5036632;28;20741;-83
2022/03/13 01:10:49;;;;;;;15.60;10.07;;;;;;;;;;5036665;28;20493;-83
2022/03/13 01:13:16;;;;;;;12.88;9.63;;;;;;;;;;5035054;28;20435;-82
2022/03/13 01:15:45;;;;;;;15.95;10.40;;;;;;;;;;5155544;22;20441;-78
2022/03/13 01:18:11;;;;;;;12.77;10.32;;;;;;;;;;5044935;28;20429;-81
2022/03/13 01:20:37;;;;;;;13.90;9.63;;;;;;;;;;5048646;28;20432;-82
2022/03/13 01:23:05;;;;;;;12.70;9.68;;;;;;;;;;5050399;28;20483;-81
2022/03/13 01:25:31;;;;;;;12.55;9.07;;;;;;;;;;5049544;28;20442;-81
2022/03/13 01:27:57;;;;;;;13.82;9.18;;;;;;;;;;5050248;28;20415;-81
2022/03/13 01:30:24;;;;;;;15.35;10.00;;;;;;;;;;5050668;28;20784;-80
2022/03/13 01:32:52;;;;;;;11.05;9.70;;;;;;;;;;5048500;28;20453;-81
2022/03/13 01:35:20;;;;;;;13.38;9.57;;;;;;;;;;5049308;28;20447;-81
2022/03/13 01:37:46;;;;;;;13.32;9.52;;;;;;;;;;5047738;28;20426;-82
2022/03/13 01:40:19;;;;;;;13.63;10.05;;;;;;;;;;5049357;28;20421;-81
2022/03/13 01:42:46;;;;;;;12.98;9.40;;;;;;;;;;5051170;28;20481;-81
2022/03/13 01:45:14;;;;;;;13.80;10.20;;;;;;;;;;5050285;28;20456;-81
2022/03/13 01:47:40;;;;;;;12.52;9.95;;;;;;;;;;5049172;28;20413;-80
2022/03/13 01:50:09;;;;;;;12.50;9.63;;;;;;;;;;5047681;28;20422;-81
2022/03/13 01:52:36;;;;;;;14.98;9.25;;;;;;;;;;5050415;28;20417;-82
2022/03/13 01:55:03;;;;;;;12.23;9.73;;;;;;;;;;5049998;28;20437;-81
2022/03/13 01:57:32;;;;;;;13.02;9.98;;;;;;;;;;5050035;28;20473;-81
2022/03/13 01:59:59;;;;;;;14.50;9.70;;;;;;;;;;5050802;28;20419;-81
2022/03/13 02:02:26;;;;;;;11.23;9.63;;;;;;;;;;5051493;28;20414;-80
2022/03/13 02:04:53;;;;;;;13.20;9.40;;;;;;;;;;5050868;28;20441;-81
2022/03/13 02:07:19;;;;;;;12.85;10.48;;;;;;;;;;5048780;28;20455;-80
2022/03/13 02:09:46;;;;;;;13.10;9.60;;;;;;;;;;5049637;28;20429;-80
2022/03/13 02:12:12;;;;;;;11.40;9.73;;;;;;;;;;5050952;28;20521;-81
2022/03/13 02:14:40;;;;;;;13.40;9.85;;;;;;;;;;5049868;28;20427;-81
2022/03/13 02:17:06;;;;;;;11.48;9.63;;;;;;;;;;5050747;28;20458;-81
2022/03/13 02:19:32;;;;;;;13.68;9.23;;;;;;;;;;5050534;28;20446;-81
2022/03/13 02:21:59;;;;;;;11.77;9.85;;;;;;;;;;5049695;28;20555;-81
2022/03/13 02:24:28;;;;;;;14.15;9.65;;;;;;;;;;5044461;28;20474;-81
2022/03/13 02:26:59;;;;;;;13.38;9.85;;;;;;;;;;5045109;28;20438;-81
2022/03/13 02:29:25;;;;;;;11.63;8.93;;;;;;;;;;5047192;28;20431;-81
2022/03/13 02:31:52;;;;;;;13.20;10.03;;;;;;;;;;5050216;28;20426;-80
2022/03/13 02:34:19;;;;;;;13.85;9.55;;;;;;;;;;5050666;28;20434;-81
2022/03/13 02:36:56;;;;;;;14.50;10.07;;;;;;;;;;5049939;28;20481;-81
2022/03/13 02:39:23;;;;;;;12.25;9.90;;;;;;;;;;5048941;28;20423;-81
2022/03/13 02:41:50;;;;;;;13.98;10.20;;;;;;;;;;5051030;28;20422;-80
2022/03/13 02:44:18;;;;;;;11.27;9.52;;;;;;;;;;5048859;28;20426;-80
2022/03/13 02:46:53;;;;;;;13.73;9.98;;;;;;;;;;5047822;28;20497;-80
2022/03/13 02:49:20;;;;;;;13.45;10.32;;;;;;;;;;5049067;28;20429;-81
2022/03/13 02:51:47;;;;;;;13.45;10.25;;;;;;;;;;5049932;28;20425;-81
2022/03/13 02:54:14;;;;;;;12.23;10.18;;;;;;;;;;5045838;28;20453;-81
2022/03/13 02:56:40;;;;;;;13.57;10.37;;;;;;;;;;5048297;28;20461;-80
2022/03/13 02:59:07;;;;;;;18.25;10.70;;;;;;;;;;5047205;28;20505;-80
2022/03/13 03:01:34;;;;;;;11.73;9.48;;;;;;;;;;5050097;28;20443;-80
2022/03/13 03:04:01;;;;;;;12.95;10.25;;;;;;;;;;5049306;28;20436;-81
2022/03/13 03:06:29;;;;;;;11.55;9.43;;;;;;;;;;5048768;28;20488;-81
2022/03/13 03:08:55;;;;;;;10.30;9.20;;;;;;;;;;5046098;28;20427;-79
2022/03/13 03:11:21;;;;;;;13.07;10.30;;;;;;;;;;5045136;28;20494;-79
2022/03/13 03:13:48;;;;;;;12.60;10.20;;;;;;;;;;5043686;28;20444;-79
2022/03/13 03:16:15;;;;;;;13.27;10.00;;;;;;;;;;5042436;28;20512;-79
2022/03/13 03:18:42;;;;;;;13.40;10.00;;;;;;;;;;5041220;28;20497;-79
2022/03/13 03:21:08;;;;;;;12.52;9.88;;;;;;;;;;5043218;28;20417;-79
2022/03/13 03:23:34;;;;;;;13.40;10.60;;;;;;;;;;5042696;28;22361;-79
2022/03/13 03:26:01;;;;;;;13.65;9.70;;;;;;;;;;5044361;28;20428;-79
2022/03/13 03:28:27;;;;;;;12.60;10.27;;;;;;;;;;5040143;28;20824;-79
2022/03/13 03:30:54;;;;;;;13.07;9.85;;;;;;;;;;5044937;28;20914;-79
2022/03/13 03:33:21;;;;;;;15.00;10.32;;;;;;;;;;5040952;28;20417;-79
2022/03/13 03:35:48;;;;;;;12.50;10.45;;;;;;;;;;5044307;28;20414;-78
2022/03/13 03:38:14;;;;;;;13.30;10.20;;;;;;;;;;5043380;28;20415;-79
2022/03/13 03:40:40;;;;;;;14.60;10.75;;;;;;;;;;5042861;28;20429;-79
2022/03/13 03:43:07;;;;;;;14.70;9.90;;;;;;;;;;5041748;28;20478;-78
2022/03/13 03:45:33;;;;;;;14.18;10.93;;;;;;;;;;5043222;28;20422;-79
2022/03/13 03:47:59;;;;;;;14.23;10.20;;;;;;;;;;5040672;28;20429;-75
2022/03/13 03:50:27;;;;;;;13.50;10.20;;;;;;;;;;5042636;28;20421;-78
2022/03/13 03:52:55;;;;;;;13.25;10.52;;;;;;;;;;5043036;28;20431;-78
2022/03/13 03:55:22;;;;;;;12.23;10.10;;;;;;;;;;5042683;28;20425;-79
2022/03/13 03:57:48;;;;;;;13.32;10.95;;;;;;;;;;5042301;28;20467;-78
2022/03/13 04:00:15;;;;;;;16.27;10.70;;;;;;;;;;5041077;28;20780;-79
2022/03/13 04:02:41;;;;;;;13.80;11.18;;;;;;;;;;5041483;28;20476;-79
2022/03/13 04:05:08;;;;;;;14.27;10.00;;;;;;;;;;5041643;28;20525;-79
2022/03/13 04:07:36;;;;;;;12.60;10.43;;;;;;;;;;5040153;28;21069;-78
2022/03/13 04:10:02;;;;;;;13.95;10.90;;;;;;;;;;5041584;28;21056;-78
2022/03/13 04:12:30;;;;;;;14.63;10.45;;;;;;;;;;5042867;28;20413;-79
2022/03/13 04:14:56;;;;;;;12.98;11.00;;;;;;;;;;5042777;28;20423;-78
2022/03/13 04:17:22;;;;;;;13.23;10.15;;;;;;;;;;5042768;28;20417;-79
2022/03/13 04:19:49;;;;;;;13.93;10.60;;;;;;;;;;5041967;28;20429;-80
2022/03/13 04:22:15;;;;;;;15.07;10.60;;;;;;;;;;5041112;28;20431;-77
2022/03/13 04:24:43;;;;;;;13.20;10.60;;;;;;;;;;5040287;28;20433;-79
2022/03/13 04:27:09;;;;;;;12.45;10.65;;;;;;;;;;5042254;28;20430;-79
2022/03/13 04:29:35;;;;;;;13.35;10.32;;;;;;;;;;5043051;28;20456;-79
2022/03/13 04:32:02;;;;;;;14.00;11.02;;;;;;;;;;5039821;28;20422;-79
2022/03/13 04:34:29;;;;;;;13.63;10.40;;;;;;;;;;5041505;28;20436;-78
2022/03/13 04:36:55;;;;;;;14.02;10.35;;;;;;;;;;5044149;28;20421;-79
2022/03/13 04:39:22;;;;;;;15.15;10.98;;;;;;;;;;5039146;28;20526;-79
2022/03/13 04:41:49;;;;;;;15.88;10.85;;;;;;;;;;5040682;28;20845;-79
2022/03/13 04:44:17;;;;;;;15.13;10.50;;;;;;;;;;5041710;28;20848;-78
2022/03/13 04:46:44;;;;;;;13.65;10.20;;;;;;;;;;5040591;28;20434;-78
2022/03/13 04:49:10;;;;;;;16.17;10.63;;;;;;;;;;5040784;28;20973;-79
2022/03/13 04:51:39;;;;;;;12.53;10.70;;;;;;;;;;5040543;28;20438;-78
2022/03/13 04:54:05;;;;;;;12.48;10.50;;;;;;;;;;5041095;28;20476;-78
2022/03/13 04:56:32;;;;;;;14.68;10.48;;;;;;;;;;5040923;28;20456;-78
2022/03/13 04:59:00;;;;;;;16.75;11.00;;;;;;;;;;5039236;28;20425;-78
2022/03/13 05:01:26;;;;;;;15.73;10.80;;;;;;;;;;5041941;28;20463;-79
2022/03/13 05:03:53;;;;;;;12.98;10.57;;;;;;;;;;5024142;28;20441;-79
2022/03/13 05:06:19;;;;;;;13.85;10.30;;;;;;;;;;5021867;28;20466;-79
2022/03/13 05:08:47;;;;;;;17.52;11.05;;;;;;;;;;5033524;28;20445;-78
2022/03/13 05:11:14;;;;;;;17.00;11.10;;;;;;;;;;5040476;28;20863;-77
2022/03/13 05:13:40;;;;;;;12.98;10.75;;;;;;;;;;5040714;28;20437;-78
2022/03/13 05:16:08;;;;;;;13.05;10.48;;;;;;;;;;5040239;28;20486;-78
2022/03/13 05:18:34;;;;;;;15.40;10.90;;;;;;;;;;5037406;28;20831;-78
2022/03/13 05:21:01;;;;;;;12.07;10.20;;;;;;;;;;5040380;28;20423;-78
2022/03/13 05:23:27;;;;;;;13.75;10.80;;;;;;;;;;5038284;28;20453;-79
2022/03/13 05:25:53;;;;;;;14.25;10.50;;;;;;;;;;5039079;28;21023;-79
2022/03/13 05:28:19;;;;;;;15.20;10.43;;;;;;;;;;5036597;28;20419;-78
2022/03/13 05:30:47;;;;;;;14.90;10.35;;;;;;;;;;5040982;28;20545;-78
2022/03/13 05:33:14;;;;;;;13.63;10.75;;;;;;;;;;5037334;28;20868;-78
2022/03/13 05:35:40;;;;;;;13.73;10.90;;;;;;;;;;5040787;28;20462;-78
2022/03/13 05:38:07;;;;;;;16.95;11.10;;;;;;;;;;5040082;28;20808;-78
2022/03/13 05:40:36;;;;;;;12.65;10.02;;;;;;;;;;5038506;28;20510;-79
2022/03/13 05:43:04;;;;;;;13.63;10.70;;;;;;;;;;5037211;28;20429;-78
2022/03/13 05:45:31;;;;;;;14.50;10.50;;;;;;;;;;5039546;28;20475;-78
2022/03/13 05:47:59;;;;;;;12.00;10.32;;;;;;;;;;5037427;28;20425;-79
2022/03/13 05:50:27;;;;;;;16.70;11.27;;;;;;;;;;5037773;28;20433;-79
2022/03/13 05:52:55;;;;;;;14.60;10.65;;;;;;;;;;5039344;28;20443;-78
2022/03/13 05:55:22;;;;;;;14.63;10.57;;;;;;;;;;5039955;28;20899;-79
2022/03/13 05:57:48;;;;;;;14.77;10.70;;;;;;;;;;5039561;28;20427;-79
2022/03/13 06:00:15;;;;;;;15.03;10.97;;;;;;;;;;5039077;28;20483;-78
2022/03/13 06:02:42;;;;;;;13.07;10.75;;;;;;;;;;5039740;28;20950;-76
2022/03/13 06:05:09;;;;;;;14.20;10.70;;;;;;;;;;5039528;28;20443;-78
2022/03/13 06:07:37;;;;;;;14.73;10.97;;;;;;;;;;5036355;28;20441;-78
2022/03/13 06:10:05;;;;;;;17.33;11.20;;;;;;;;;;5038897;28;20465;-78
2022/03/13 06:12:31;;;;;;;11.57;9.90;;;;;;;;;;5039265;28;20448;-78
2022/03/13 06:14:58;;;;;;;12.98;10.70;;;;;;;;;;5040046;28;20908;-79
2022/03/13 06:17:24;;;;;;;14.35;10.70;;;;;;;;;;5038810;28;20494;-78
2022/03/13 06:19:50;;;;;;;12.00;10.13;;;;;;;;;;5037282;28;20433;-79
2022/03/13 06:22:18;;;;;;;13.53;10.73;;;;;;;;;;5038330;28;20914;-78
2022/03/13 06:24:46;;;;;;;14.65;11.40;;;;;;;;;;5036592;28;20443;-78
2022/03/13 06:27:12;;;;;;;15.35;11.30;;;;;;;;;;5038532;28;20422;-78
2022/03/13 06:29:39;;;;;;;14.80;10.43;;;;;;;;;;5038450;28;20459;-78
2022/03/13 06:32:06;;;;;;;14.48;11.45;;;;;;;;;;5036977;28;20453;-78
2022/03/13 06:34:32;;;;;;;14.48;10.80;;;;;;;;;;5036967;28;20847;-79
2022/03/13 06:36:58;;;;;;;15.68;11.43;;;;;;;;;;5039039;28;20919;-79
2022/03/13 06:39:25;;;;;;;15.45;10.90;;;;;;;;;;5039376;28;20423;-79
2022/03/13 06:41:53;;;;;;;13.73;10.93;;;;;;;;;;5038067;28;20424;-77
2022/03/13 06:44:19;;;;;;;12.98;11.15;;;;;;;;;;5035352;28;20500;-79
2022/03/13 06:46:46;;;;;;;15.52;11.50;;;;;;;;;;5039630;28;20848;-78
2022/03/13 06:49:12;;;;;;;14.50;10.98;;;;;;;;;;5040400;28;20957;-78
2022/03/13 06:51:39;;;;;;;20.23;11.63;;;;;;;;;;5038243;28;20456;-78
2022/03/13 06:54:06;;;;;;;14.18;11.25;;;;;;;;;;5038951;28;20438;-79
2022/03/13 06:56:32;;;;;;;14.25;11.20;;;;;;;;;;5037779;28;20555;-78
2022/03/13 06:59:03;;;;;;;13.85;11.35;;;;;;;;;;5039669;28;20448;-78
2022/03/13 07:01:29;;;;;;;13.45;10.00;;;;;;;;;;5035264;28;20461;-79
2022/03/13 07:03:55;;;;;;;14.55;10.70;;;;;;;;;;5040175;28;20851;-78
2022/03/13 07:06:21;;;;;;;13.68;10.40;;;;;;;;;;5040971;28;20992;-79
2022/03/13 07:08:48;;;;;;;15.10;10.98;;;;;;;;;;5040775;28;20490;-79
2022/03/13 07:11:15;;;;;;;14.17;10.63;;;;;;;;;;5049700;28;20555;-83
2022/03/13 07:13:44;;;;;;;13.05;10.80;;;;;;;;;;5041348;28;20895;-79
2022/03/13 07:16:14;;;;;;;15.53;10.50;;;;;;;;;;5052928;23;20445;-82
2022/03/13 07:18:42;;;;;;;15.45;11.48;;;;;;;;;;5042923;28;20429;-81
2022/03/13 07:21:09;;;;;;;14.88;11.13;;;;;;;;;;5044152;28;20431;-85
2022/03/13 07:23:35;;;;;;;15.75;11.50;;;;;;;;;;5046437;28;20487;-83
2022/03/13 07:26:01;;;;;;;15.60;11.65;;;;;;;;;;5045463;28;20752;-83
2022/03/13 07:28:29;;;;;;;15.63;11.20;;;;;;;;;;5044782;28;20409;-81
2022/03/13 07:30:55;;;;;;;14.93;11.57;;;;;;;;;;5047198;28;20421;-81
2022/03/13 07:33:23;;;;;;;13.52;10.57;;;;;;;;;;5044720;28;20418;-81
2022/03/13 07:35:49;;;;;;;13.90;11.10;;;;;;;;;;5044588;28;20817;-84
2022/03/13 07:38:15;;;;;;;13.80;10.57;;;;;;;;;;5046127;28;20426;-81
2022/03/13 07:40:43;;;;;;;15.23;10.40;;;;;;;;;;5045527;28;20420;-80
2022/03/13 07:43:09;;;;;;;15.77;11.00;;;;;;;;;;5043655;28;20980;-84
2022/03/13 07:45:36;;;;;;;15.73;11.50;;;;;;;;;;5044731;28;20430;-83
2022/03/13 07:48:02;;;;;;;15.40;10.98;;;;;;;;;;5038773;28;20499;-80
2022/03/13 07:50:31;;;;;;;12.25;10.60;;;;;;;;;;5038381;28;20433;-81
2022/03/13 07:52:57;;;;;;;13.20;10.05;;;;;;;;;;5040898;28;20795;-81
2022/03/13 07:55:24;;;;;;;15.27;10.40;;;;;;;;;;5041436;28;20443;-83
2022/03/13 07:57:51;;;;;;;16.77;10.95;;;;;;;;;;5043864;28;20859;-81
2022/03/13 08:00:18;;;;;;;12.30;10.40;;;;;;;;;;5043352;28;20833;-83
2022/03/13 08:02:45;;;;;;;14.25;11.30;;;;;;;;;;5043898;28;20465;-81
2022/03/13 08:05:11;;;;;;;17.25;11.20;;;;;;;;;;5041985;28;20825;-82
2022/03/13 08:07:41;;;;;;;14.80;11.20;;;;;;;;;;5041895;28;20423;-83
2022/03/13 08:10:08;;;;;;;14.50;11.70;;;;;;;;;;5040922;28;20512;-83
2022/03/13 08:12:35;;;;;;;16.33;11.77;;;;;;;;;;5042317;28;20418;-82
2022/03/13 08:15:01;;;;;;;16.77;12.60;;;;;;;;;;5046515;28;20407;-85
2022/03/13 08:17:28;;;;;;;13.52;11.30;;;;;;;;;;5043636;28;20419;-84
2022/03/13 08:19:56;;;;;;;12.60;10.50;;;;;;;;;;5045131;28;20429;-82
2022/03/13 08:22:22;;;;;;;15.90;11.48;;;;;;;;;;5045108;28;20443;-84
2022/03/13 08:24:50;;;;;;;14.55;12.00;;;;;;;;;;5044588;28;20421;-86
2022/03/13 08:27:16;;;;;;;15.15;12.52;;;;;;;;;;5042757;28;20850;-83
2022/03/13 08:29:43;;;;;;;15.73;11.00;;;;;;;;;;5045717;28;20427;-84
2022/03/13 08:32:09;;;;;;;16.48;12.13;;;;;;;;;;5045280;28;20426;-84
2022/03/13 08:34:39;;;;;;;12.75;10.60;;;;;;;;;;5046311;28;20903;-83
2022/03/13 08:37:05;;;;;;;15.77;11.20;;;;;;;;;;5043231;28;21094;-83
2022/03/13 08:39:32;;;;;;;13.30;10.70;;;;;;;;;;5044951;28;20437;-83
2022/03/13 08:41:59;;;;;;;13.98;10.68;;;;;;;;;;5044507;28;20465;-85
2022/03/13 08:44:25;;;;;;;13.32;10.30;;;;;;;;;;5043450;28;20471;-85
2022/03/13 08:46:52;;;;;;;13.05;10.90;;;;;;;;;;5045095;28;20421;-84
2022/03/13 08:49:18;;;;;;;12.45;10.45;;;;;;;;;;5040190;28;20938;-85
2022/03/13 08:51:44;;;;;;;14.10;10.90;;;;;;;;;;5038371;28;20770;-81
2022/03/13 08:54:10;;;;;;;15.02;11.32;;;;;;;;;;5041280;28;20444;-83
2022/03/13 08:56:36;;;;;;;14.90;11.32;;;;;;;;;;5040791;28;20436;-81
2022/03/13 08:59:04;;;;;;;17.80;11.35;;;;;;;;;;5040214;28;20455;-84
2022/03/13 09:01:30;;;;;;;13.93;10.75;;;;;;;;;;5038918;28;20434;-81
2022/03/13 09:03:57;;;;;;;15.90;11.70;;;;;;;;;;5039776;28;20839;-82
2022/03/13 09:06:23;;;;;;;15.10;10.60;;;;;;;;;;5040805;28;20417;-83
2022/03/13 09:08:49;;;;;;;14.55;10.88;;;;;;;;;;5038908;28;20430;-83
2022/03/13 09:11:15;;;;;;;13.20;10.80;;;;;;;;;;5040586;28;20425;-83
2022/03/13 09:13:42;;;;;;;14.35;11.38;;;;;;;;;;5039731;28;20448;-81
2022/03/13 09:16:09;;;;;;;14.80;12.02;;;;;;;;;;5040756;28;20430;-83
2022/03/13 09:18:36;;;;;;;13.60;11.43;;;;;;;;;;5035341;28;20433;-82
2022/03/13 09:21:02;;;;;;;14.10;11.90;;;;;;;;;;5038402;28;20437;-79
2022/03/13 09:23:28;;;;;;;14.07;11.27;;;;;;;;;;5038901;28;20430;-81
2022/03/13 09:25:55;;;;;;;13.48;10.50;;;;;;;;;;5041184;28;20478;-84
2022/03/13 09:28:22;;;;;;;14.75;11.85;;;;;;;;;;5038801;28;20427;-80
2022/03/13 09:30:49;;;;;;;13.40;11.77;;;;;;;;;;5039729;28;20452;-81
2022/03/13 09:33:16;;;;;;;14.80;11.93;;;;;;;;;;5038555;28;20488;-81
2022/03/13 09:35:43;;;;;;;13.25;11.15;;;;;;;;;;5036445;28;20512;-83
2022/03/13 09:38:09;;;;;;;15.37;12.10;;;;;;;;;;5038348;28;20486;-80
2022/03/13 09:40:35;;;;;;;14.68;11.57;;;;;;;;;;5040851;28;20437;-83
2022/03/13 09:43:04;;;;;;;13.60;11.00;;;;;;;;;;5040503;28;20431;-81
2022/03/13 09:45:31;;;;;;;14.50;11.20;;;;;;;;;;5036996;28;20435;-81
2022/03/13 09:47:57;;;;;;;13.80;11.55;;;;;;;;;;5039039;28;20421;-84
2022/03/13 09:50:24;;;;;;;14.90;11.10;;;;;;;;;;5038010;28;20480;-82
2022/03/13 09:52:51;;;;;;;14.15;11.25;;;;;;;;;;5036681;28;20432;-79
2022/03/13 09:55:17;;;;;;;14.55;11.35;;;;;;;;;;5040096;28;20421;-82
2022/03/13 09:57:44;;;;;;;14.13;10.95;;;;;;;;;;5041208;28;20419;-82
2022/03/13 10:00:11;;;;;;;12.07;10.18;;;;;;;;;;5039728;28;20437;-82
2022/03/13 10:02:38;;;;;;;12.38;10.65;;;;;;;;;;5037730;28;20421;-82
2022/03/13 10:05:09;;;;;;;17.73;11.20;;;;;;;;;;5038888;28;20430;-82
2022/03/13 10:10:29;;;;;;;12.35;9.98;;;;;;;;;;5095925;27;20377;-80
2022/03/13 10:12:55;;;;;;;13.48;11.10;;;;;;;;;;5086104;27;20458;-80
2022/03/13 10:15:22;;;;;;;11.27;9.40;;;;;;;;;;5075622;28;20422;-82
2022/03/13 10:17:49;;;;;;;12.07;10.00;;;;;;;;;;5072940;28;20482;-81
2022/03/13 10:20:16;;;;;;;12.88;9.95;;;;;;;;;;5072366;28;21013;-81
2022/03/13 10:22:43;;;;;;;11.47;9.70;;;;;;;;;;5073244;28;20838;-80
2022/03/13 10:25:11;;;;;;;12.32;9.50;;;;;;;;;;5074111;28;20428;-83
2022/03/13 10:27:39;;;;;;;12.25;9.80;;;;;;;;;;5074072;28;20454;-81
2022/03/13 10:30:07;;;;;;;12.10;10.23;;;;;;;;;;5071957;28;20421;-81
2022/03/13 10:32:33;;;;;;;13.02;10.57;;;;;;;;;;5069029;28;20413;-81
2022/03/13 10:35:01;;;;;;;16.77;10.20;;;;;;;;;;5072467;28;20875;-81
2022/03/13 10:37:35;;;;;;;14.02;10.25;;;;;;;;;;5072556;28;20413;-83
2022/03/13 10:40:06;;;;;;;14.20;10.30;;;;;;;;;;5066833;28;21146;-82
2022/03/13 10:42:32;;;;;;;13.27;9.57;;;;;;;;;;5073516;28;20793;-82
2022/03/13 10:45:06;;;;;;;14.73;11.10;;;;;;;;;;5073239;28;20435;-83
2022/03/13 10:47:32;;;;;;;12.50;11.02;;;;;;;;;;5053793;28;20894;-83
2022/03/13 10:49:58;;;;;;;12.57;10.73;;;;;;;;;;5045932;28;20430;-83
2022/03/13 10:52:26;;;;;;;13.40;10.30;;;;;;;;;;5054571;28;20436;-81
2022/03/13 10:54:53;;;;;;;12.13;10.57;;;;;;;;;;5056411;28;20448;-82
2022/03/13 10:57:20;;;;;;;11.17;9.50;;;;;;;;;;5054249;28;20553;-83
2022/03/13 10:59:46;;;;;;;12.70;9.40;;;;;;;;;;5054252;28;20513;-80
2022/03/13 11:02:15;;;;;;;14.07;11.00;;;;;;;;;;5053980;28;20456;-80
2022/03/13 11:04:48;;;;;;;12.50;10.63;;;;;;;;;;5056137;28;20914;-81
2022/03/13 11:07:15;;;;;;;13.88;10.35;;;;;;;;;;5054876;28;20418;-81
2022/03/13 11:09:41;;;;;;;12.70;10.45;;;;;;;;;;5069897;28;20428;-82
2022/03/13 11:12:10;;;;;;;13.70;11.45;;;;;;;;;;5076704;28;20889;-81
2022/03/13 11:14:38;;;;;;;17.10;11.20;;;;;;;;;;5074835;28;20441;-81
2022/03/13 11:17:06;;;;;;;15.18;11.10;;;;;;;;;;5071785;28;20424;-84
2022/03/13 11:19:35;;;;;;;15.50;11.23;;;;;;;;;;5075222;28;20411;-84
2022/03/13 11:22:02;;;;;;;18.45;11.82;;;;;;;;;;5059350;28;20446;-81
2022/03/13 11:24:29;;;;;;;14.07;11.32;;;;;;;;;;5062677;28;20413;-82
2022/03/13 11:26:56;;;;;;;13.75;11.52;;;;;;;;;;5060747;28;20504;-80
2022/03/13 11:29:37;;;;;;;16.48;11.60;;;;;;;;;;5062072;28;20429;-83
2022/03/13 11:32:24;;;;;;;13.82;10.85;;;;;;;;;;5061285;28;20947;-83
2022/03/13 11:35:15;;;;;;;16.13;12.00;;;;;;;;;;5059274;28;20672;-82
2022/03/13 11:37:43;;;;;;;12.85;10.38;;;;;;;;;;5062956;28;20461;-82
2022/03/13 11:40:10;;;;;;;13.63;10.85;;;;;;;;;;5061422;28;20949;-85
2022/03/13 11:42:44;;;;;;;14.38;11.75;;;;;;;;;;5082208;28;20490;-81
2022/03/13 11:45:30;;;;;;;15.88;12.15;;;;;;;;;;5081083;28;20418;-81
2022/03/13 11:47:56;;;;;;;14.60;11.48;;;;;;;;;;5061626;28;20501;-80
2022/03/13 11:50:27;;;;;;;13.40;11.10;;;;;;;;;;5058013;28;20408;-83
2022/03/13 11:53:15;;;;;;;11.50;9.75;;;;;;;;;;5059722;28;20433;-84
2022/03/13 11:55:56;;;;;;;12.20;10.93;;;;;;;;;;5061642;28;21018;-81
2022/03/13 11:58:39;;;;;;;13.00;10.88;;;;;;;;;;5060568;28;20419;-82
2022/03/13 12:01:09;;;;;;;12.10;10.75;;;;;;;;;;5061189;28;20474;-82
2022/03/13 12:03:35;;;;;;;13.93;10.88;;;;;;;;;;5058287;28;20845;-81
2022/03/13 12:06:02;;;;;;;10.98;9.77;;;;;;;;;;5061731;28;20982;-82
2022/03/13 12:08:43;;;;;;;10.60;9.50;;;;;;;;;;5061385;28;20569;-81
2022/03/13 12:11:26;;;;;;;11.47;9.43;;;;;;;;;;5058892;28;20833;-82
2022/03/13 12:13:53;;;;;;;11.25;9.05;;;;;;;;;;5061324;28;20485;-80
2022/03/13 12:16:20;;;;;;;10.60;9.50;;;;;;;;;;5062215;28;20416;-81
2022/03/13 12:18:57;;;;;;;10.48;9.20;;;;;;;;;;5060632;28;20512;-83
2022/03/13 12:21:23;;;;;;;10.80;9.70;;;;;;;;;;5061214;28;20811;-81
2022/03/13 12:23:49;;;;;;;10.52;9.43;;;;;;;;;;5061394;28;20503;-81
2022/03/13 12:26:16;;;;;;;11.93;9.70;;;;;;;;;;5060448;28;20429;-84
2022/03/13 12:28:42;;;;;;;12.40;9.82;;;;;;;;;;5061524;28;20485;-82
2022/03/13 12:31:10;;;;;;;13.23;10.15;;;;;;;;;;5058789;28;20435;-81
2022/03/13 12:33:37;;;;;;;11.13;9.93;;;;;;;;;;5059355;28;20954;-82
2022/03/13 12:36:04;;;;;;;11.25;9.82;;;;;;;;;;5060482;28;20425;-82
2022/03/13 12:38:31;;;;;;;10.67;9.57;;;;;;;;;;5059531;28;20837;-81
2022/03/13 12:40:58;;;;;;;12.75;9.65;;;;;;;;;;5060390;28;20420;-81
2022/03/13 12:43:25;;;;;;;12.15;9.35;;;;;;;;;;5058543;28;20437;-84
2022/03/13 12:45:51;;;;;;;10.40;9.30;;;;;;;;;;5055840;28;20425;-83
2022/03/13 12:48:19;;;;;;;10.97;9.77;;;;;;;;;;5052611;28;20433;-81
2022/03/13 12:50:47;;;;;;;11.25;9.80;;;;;;;;;;5060139;28;20473;-82
2022/03/13 12:53:22;;;;;;;11.68;9.15;;;;;;;;;;5054198;28;20449;-83
2022/03/13 12:55:52;;;;;;;10.43;8.90;;;;;;;;;;5061018;28;20788;-82
2022/03/13 12:58:19;;;;;;;10.73;9.63;;;;;;;;;;5058172;28;20805;-83
2022/03/13 13:00:45;;;;;;;10.52;9.30;;;;;;;;;;5056512;28;20457;-82
2022/03/13 13:03:13;;;;;;;11.00;9.45;;;;;;;;;;5061881;28;20447;-81
2022/03/13 13:05:48;;;;;;;11.73;10.55;;;;;;;;;;5060803;28;20434;-81
2022/03/13 13:08:14;;;;;;;11.13;9.90;;;;;;;;;;5061061;28;20432;-83
2022/03/13 13:10:41;;;;;;;13.30;10.80;;;;;;;;;;5061444;28;20409;-82
2022/03/13 13:13:08;;;;;;;12.00;9.65;;;;;;;;;;5062591;28;20419;-83
2022/03/13 13:18:11;;;;;;;13.43;10.88;;;;;;;;;;5049378;28;20448;-84
2022/03/13 13:20:38;;;;;;;10.90;9.80;;;;;;;;;;5051545;28;20479;-84
2022/03/13 13:23:10;;;;;;;12.83;9.77;;;;;;;;;;5054110;28;20773;-83
2022/03/13 13:25:36;;;;;;;11.25;10.15;;;;;;;;;;5052973;28;20425;-84
2022/03/13 13:28:03;;;;;;;13.50;10.50;;;;;;;;;;5049751;28;20445;-84
2022/03/13 13:30:30;;;;;;;13.35;11.10;;;;;;;;;;5052435;28;20405;-84
2022/03/13 13:33:00;;;;;;;12.38;10.60;;;;;;;;;;5053521;28;20830;-84
2022/03/13 13:35:31;;;;;;;14.83;11.47;;;;;;;;;;5053155;28;20409;-83
2022/03/13 13:37:59;;;;;;;12.20;10.80;;;;;;;;;;5052039;28;20409;-84
2022/03/13 13:40:27;;;;;;;11.65;10.45;;;;;;;;;;5048518;28;20472;-85
2022/03/13 13:42:54;;;;;;;13.10;11.40;;;;;;;;;;5051932;28;20520;-84
2022/03/13 13:45:37;;;;;;;12.35;11.07;;;;;;;;;;5053069;28;20425;-83
2022/03/13 13:48:23;;;;;;;13.90;10.05;;;;;;;;;;5050817;28;20965;-82
2022/03/13 13:50:50;;;;;;;12.27;10.98;;;;;;;;;;5051916;28;20494;-84
2022/03/13 13:53:17;;;;;;;13.55;10.38;;;;;;;;;;5051545;28;20441;-83
2022/03/13 13:55:44;;;;;;;13.63;10.50;;;;;;;;;;5047578;28;20545;-83
2022/03/13 13:58:15;;;;;;;11.70;9.70;;;;;;;;;;5031016;28;20431;-83
2022/03/13 14:00:42;;;;;;;12.90;10.80;;;;;;;;;;5034365;28;20426;-84
2022/03/13 14:03:08;;;;;;;10.70;9.70;;;;;;;;;;5034486;28;20449;-84
2022/03/13 14:05:35;;;;;;;13.35;10.63;;;;;;;;;;5032118;28;20419;-83
2022/03/13 14:08:01;;;;;;;10.77;9.67;;;;;;;;;;5031316;28;20423;-83
2022/03/13 14:10:27;;;;;;;13.98;10.05;;;;;;;;;;5031281;28;20796;-83
2022/03/13 14:12:55;;;;;;;11.65;10.50;;;;;;;;;;5034794;28;20434;-83
2022/03/13 14:15:21;;;;;;;11.43;9.90;;;;;;;;;;5033868;28;20490;-85
2022/03/13 14:17:48;;;;;;;12.35;10.80;;;;;;;;;;5031400;28;20912;-83
2022/03/13 14:20:14;;;;;;;11.47;10.33;;;;;;;;;;5032214;28;20445;-83
2022/03/13 14:22:41;;;;;;;11.80;10.60;;;;;;;;;;5030961;28;21078;-84
2022/03/13 14:25:08;;;;;;;13.90;11.27;;;;;;;;;;5034605;28;20430;-85
2022/03/13 14:27:34;;;;;;;14.18;10.88;;;;;;;;;;5035205;28;20423;-84
2022/03/13 14:30:02;;;;;;;12.20;10.90;;;;;;;;;;5034186;28;20427;-84